sensor_id;sensor_type;location;lat;lon;timestamp;temperature;humidity
69204;DHT22;56317;27.658;85.326;2023-04-03T03:08:34;16.30;99.90
69204;DHT22;56317;27.658;85.326;2023-04-03T03:11:04;16.60;99.90
69204;DHT22;56317;27.658;85.326;2023-04-03T03:13:31;16.70;99.90
69204;DHT22;56317;27.658;85.326;2023-04-03T03:15:59;16.90;99.90
69204;DHT22;56317;27.658;85.326;2023-04-03T03:18:30;17.20;99.90
69204;DHT22;56317;27.658;85.326;2023-04-03T03:20:59;17.40;99.90
69204;DHT22;56317;27.658;85.326;2023-04-03T03:23:28;17.60;99.90
69204;DHT22;56317;27.658;85.326;2023-04-03T03:25:57;17.80;99.90
69204;DHT22;56317;27.658;85.326;2023-04-03T03:28:24;18.00;99.90
69204;DHT22;56317;27.658;85.326;2023-04-03T03:30:52;18.10;99.90
69204;DHT22;56317;27.658;85.326;2023-04-03T03:33:19;18.30;99.90
69204;DHT22;56317;27.658;85.326;2023-04-03T03:35:47;18.40;99.90
69204;DHT22;56317;27.658;85.326;2023-04-03T03:38:14;18.50;99.90
69204;DHT22;56317;27.658;85.326;2023-04-03T03:40:41;18.70;99.90
69204;DHT22;56317;27.658;85.326;2023-04-03T03:43:09;18.80;99.90
69204;DHT22;56317;27.658;85.326;2023-04-03T03:45:36;18.90;99.90
69204;DHT22;56317;27.658;85.326;2023-04-03T03:48:04;19.10;99.90
69204;DHT22;56317;27.658;85.326;2023-04-03T03:50:31;19.20;99.90
69204;DHT22;56317;27.658;85.326;2023-04-03T03:52:58;19.20;99.90
69204;DHT22;56317;27.658;85.326;2023-04-03T03:55:26;19.40;99.90
69204;DHT22;56317;27.658;85.326;2023-04-03T03:57:53;19.60;99.90
69204;DHT22;56317;27.658;85.326;2023-04-03T04:00:21;19.70;99.90
69204;DHT22;56317;27.658;85.326;2023-04-03T04:02:48;19.90;99.90
69204;DHT22;56317;27.658;85.326;2023-04-03T04:05:15;20.00;99.90
69204;DHT22;56317;27.658;85.326;2023-04-03T04:07:42;20.20;99.90
69204;DHT22;56317;27.658;85.326;2023-04-03T04:10:10;20.40;99.90
69204;DHT22;56317;27.658;85.326;2023-04-03T04:12:37;20.50;99.90
69204;DHT22;56317;27.658;85.326;2023-04-03T04:15:05;20.80;99.90
69204;DHT22;56317;27.658;85.326;2023-04-03T04:17:32;20.90;99.90
69204;DHT22;56317;27.658;85.326;2023-04-03T04:20:02;21.00;99.90
69204;DHT22;56317;27.658;85.326;2023-04-03T04:22:31;21.10;99.90
69204;DHT22;56317;27.658;85.326;2023-04-03T04:24:58;21.30;99.90
69204;DHT22;56317;27.658;85.326;2023-04-03T04:27:29;21.50;99.90
69204;DHT22;56317;27.658;85.326;2023-04-03T04:29:56;21.60;99.90
69204;DHT22;56317;27.658;85.326;2023-04-03T04:32:23;21.70;99.90
69204;DHT22;56317;27.658;85.326;2023-04-03T04:34:51;21.80;99.90
69204;DHT22;56317;27.658;85.326;2023-04-03T04:37:18;22.00;99.90
69204;DHT22;56317;27.658;85.326;2023-04-03T04:39:45;22.20;99.90
69204;DHT22;56317;27.658;85.326;2023-04-03T04:42:13;22.30;99.90
69204;DHT22;56317;27.658;85.326;2023-04-03T04:44:40;22.40;99.90
69204;DHT22;56317;27.658;85.326;2023-04-03T04:47:07;22.60;99.90
69204;DHT22;56317;27.658;85.326;2023-04-03T04:49:35;22.60;99.90
69204;DHT22;56317;27.658;85.326;2023-04-03T04:52:10;22.60;98.80
69204;DHT22;56317;27.658;85.326;2023-04-03T04:54:37;22.80;99.90
69204;DHT22;56317;27.658;85.326;2023-04-03T04:57:05;23.20;99.90
69204;DHT22;56317;27.658;85.326;2023-04-03T04:59:41;23.50;98.50
69204;DHT22;56317;27.658;85.326;2023-04-03T05:02:09;23.70;96.80
69204;DHT22;56317;27.658;85.326;2023-04-03T05:04:36;23.70;96.00
69204;DHT22;56317;27.658;85.326;2023-04-03T05:07:04;23.90;96.70
69204;DHT22;56317;27.658;85.326;2023-04-03T05:09:31;24.40;95.80
69204;DHT22;56317;27.658;85.326;2023-04-03T05:11:59;24.80;95.50
69204;DHT22;56317;27.658;85.326;2023-04-03T05:14:26;25.10;93.90
69204;DHT22;56317;27.658;85.326;2023-04-03T05:16:56;25.40;91.30
69204;DHT22;56317;27.658;85.326;2023-04-03T05:19:24;25.60;92.50
69204;DHT22;56317;27.658;85.326;2023-04-03T05:21:51;25.90;90.70
69204;DHT22;56317;27.658;85.326;2023-04-03T05:24:18;26.00;90.20
69204;DHT22;56317;27.658;85.326;2023-04-03T05:26:46;26.20;87.20
69204;DHT22;56317;27.658;85.326;2023-04-03T05:29:13;26.30;88.00
69204;DHT22;56317;27.658;85.326;2023-04-03T05:31:41;26.60;84.10
69204;DHT22;56317;27.658;85.326;2023-04-03T05:34:08;27.10;87.60
69204;DHT22;56317;27.658;85.326;2023-04-03T05:36:35;27.20;84.00
69204;DHT22;56317;27.658;85.326;2023-04-03T05:39:03;27.50;84.70
69204;DHT22;56317;27.658;85.326;2023-04-03T05:41:34;27.90;82.90
69204;DHT22;56317;27.658;85.326;2023-04-03T05:44:01;28.00;80.00
69204;DHT22;56317;27.658;85.326;2023-04-03T05:46:29;28.10;74.50
69204;DHT22;56317;27.658;85.326;2023-04-03T05:48:59;28.30;76.60
69204;DHT22;56317;27.658;85.326;2023-04-03T05:51:35;29.10;73.60
69204;DHT22;56317;27.658;85.326;2023-04-03T05:54:25;31.70;71.20
69204;DHT22;56317;27.658;85.326;2023-04-03T05:56:53;35.00;65.00
69204;DHT22;56317;27.658;85.326;2023-04-03T05:59:22;37.40;73.90
69204;DHT22;56317;27.658;85.326;2023-04-03T06:01:49;38.80;51.40
69204;DHT22;56317;27.658;85.326;2023-04-03T06:04:17;40.00;49.50
69204;DHT22;56317;27.658;85.326;2023-04-03T06:06:48;38.30;44.90
69204;DHT22;56317;27.658;85.326;2023-04-03T06:09:16;37.00;48.20
69204;DHT22;56317;27.658;85.326;2023-04-03T06:11:44;38.60;47.70
69204;DHT22;56317;27.658;85.326;2023-04-03T06:14:11;39.00;44.80
69204;DHT22;56317;27.658;85.326;2023-04-03T06:16:39;38.20;45.40
69204;DHT22;56317;27.658;85.326;2023-04-03T06:19:10;38.20;44.70
69204;DHT22;56317;27.658;85.326;2023-04-03T06:21:38;39.60;44.80
69204;DHT22;56317;27.658;85.326;2023-04-03T06:24:06;39.70;43.30
69204;DHT22;56317;27.658;85.326;2023-04-03T06:26:35;38.20;43.10
69204;DHT22;56317;27.658;85.326;2023-04-03T06:29:02;39.60;43.40
69204;DHT22;56317;27.658;85.326;2023-04-03T06:31:30;40.70;42.20
69204;DHT22;56317;27.658;85.326;2023-04-03T06:34:00;41.70;41.90
69204;DHT22;56317;27.658;85.326;2023-04-03T06:36:32;43.30;41.60
69204;DHT22;56317;27.658;85.326;2023-04-03T06:39:03;44.40;40.60
69204;DHT22;56317;27.658;85.326;2023-04-03T06:41:33;45.70;39.50
69204;DHT22;56317;27.658;85.326;2023-04-03T06:44:01;46.00;38.40
69204;DHT22;56317;27.658;85.326;2023-04-03T06:46:29;45.70;38.00
69204;DHT22;56317;27.658;85.326;2023-04-03T06:48:57;45.90;37.90
69204;DHT22;56317;27.658;85.326;2023-04-03T06:51:26;46.10;37.40
69204;DHT22;56317;27.658;85.326;2023-04-03T06:53:58;44.10;37.00
69204;DHT22;56317;27.658;85.326;2023-04-03T06:56:27;44.30;38.00
69204;DHT22;56317;27.658;85.326;2023-04-03T06:58:55;45.50;38.10
69204;DHT22;56317;27.658;85.326;2023-04-03T07:01:25;47.10;37.40
69204;DHT22;56317;27.658;85.326;2023-04-03T07:03:54;48.00;36.00
69204;DHT22;56317;27.658;85.326;2023-04-03T07:06:22;48.10;36.20
69204;DHT22;56317;27.658;85.326;2023-04-03T07:08:56;48.50;35.70
69204;DHT22;56317;27.658;85.326;2023-04-03T07:11:23;49.00;35.30
69204;DHT22;56317;27.658;85.326;2023-04-03T07:13:51;47.30;34.90
69204;DHT22;56317;27.658;85.326;2023-04-03T07:16:21;43.20;35.80
69204;DHT22;56317;27.658;85.326;2023-04-03T07:18:48;40.00;37.80
69204;DHT22;56317;27.658;85.326;2023-04-03T07:21:16;39.70;38.60
69204;DHT22;56317;27.658;85.326;2023-04-03T07:23:43;37.60;40.00
69204;DHT22;56317;27.658;85.326;2023-04-03T07:26:11;37.10;40.90
69204;DHT22;56317;27.658;85.326;2023-04-03T07:28:38;37.80;41.30
69204;DHT22;56317;27.658;85.326;2023-04-03T07:31:11;37.70;40.80
69204;DHT22;56317;27.658;85.326;2023-04-03T07:33:40;37.00;41.80
69204;DHT22;56317;27.658;85.326;2023-04-03T07:36:09;35.80;42.00
69204;DHT22;56317;27.658;85.326;2023-04-03T07:38:37;34.00;43.40
69204;DHT22;56317;27.658;85.326;2023-04-03T07:41:05;32.70;45.40
69204;DHT22;56317;27.658;85.326;2023-04-03T07:43:32;34.60;45.70
69204;DHT22;56317;27.658;85.326;2023-04-03T07:46:01;37.80;42.80
69204;DHT22;56317;27.658;85.326;2023-04-03T07:48:28;40.00;41.70
69204;DHT22;56317;27.658;85.326;2023-04-03T07:51:00;41.50;39.80
69204;DHT22;56317;27.658;85.326;2023-04-03T07:53:28;41.90;39.20
69204;DHT22;56317;27.658;85.326;2023-04-03T07:55:57;39.60;39.10
69204;DHT22;56317;27.658;85.326;2023-04-03T07:58:25;36.70;40.50
69204;DHT22;56317;27.658;85.326;2023-04-03T08:00:53;37.60;41.80
69204;DHT22;56317;27.658;85.326;2023-04-03T08:03:20;35.70;41.80
69204;DHT22;56317;27.658;85.326;2023-04-03T08:05:49;35.40;44.00
69204;DHT22;56317;27.658;85.326;2023-04-03T08:08:19;38.30;42.10
69204;DHT22;56317;27.658;85.326;2023-04-03T08:10:54;40.40;40.20
69204;DHT22;56317;27.658;85.326;2023-04-03T08:13:21;37.60;41.00
69204;DHT22;56317;27.658;85.326;2023-04-03T08:15:49;36.70;42.60
69204;DHT22;56317;27.658;85.326;2023-04-03T08:18:18;35.90;41.40
69204;DHT22;56317;27.658;85.326;2023-04-03T08:20:48;34.80;43.20
69204;DHT22;56317;27.658;85.326;2023-04-03T08:23:15;36.80;43.10
69204;DHT22;56317;27.658;85.326;2023-04-03T08:25:44;38.30;42.40
69204;DHT22;56317;27.658;85.326;2023-04-03T08:28:12;36.40;41.10
69204;DHT22;56317;27.658;85.326;2023-04-03T08:30:41;35.70;43.50
69204;DHT22;56317;27.658;85.326;2023-04-03T08:33:09;35.30;43.40
69204;DHT22;56317;27.658;85.326;2023-04-03T08:35:41;33.40;45.40
69204;DHT22;56317;27.658;85.326;2023-04-03T08:38:09;32.20;46.70
69204;DHT22;56317;27.658;85.326;2023-04-03T08:40:38;32.00;49.00
69204;DHT22;56317;27.658;85.326;2023-04-03T08:43:27;31.70;47.40
69204;DHT22;56317;27.658;85.326;2023-04-03T08:45:57;30.90;48.90
69204;DHT22;56317;27.658;85.326;2023-04-03T08:48:36;31.60;49.60
69204;DHT22;56317;27.658;85.326;2023-04-03T08:51:14;36.20;46.70
69204;DHT22;56317;27.658;85.326;2023-04-03T08:53:53;40.30;42.60
69204;DHT22;56317;27.658;85.326;2023-04-03T08:56:23;42.90;40.50
69204;DHT22;56317;27.658;85.326;2023-04-03T08:59:05;44.80;38.50
69204;DHT22;56317;27.658;85.326;2023-04-03T09:01:40;44.10;37.80
69204;DHT22;56317;27.658;85.326;2023-04-03T09:04:16;44.00;37.40
69204;DHT22;56317;27.658;85.326;2023-04-03T09:06:49;44.70;36.60
69204;DHT22;56317;27.658;85.326;2023-04-03T09:12:06;43.00;39.00
69204;DHT22;56317;27.658;85.326;2023-04-03T09:18:21;42.30;36.60
69204;DHT22;56317;27.658;85.326;2023-04-03T09:21:20;37.60;39.80
69204;DHT22;56317;27.658;85.326;2023-04-03T09:23:53;38.10;42.20
69204;DHT22;56317;27.658;85.326;2023-04-03T09:26:34;39.30;40.40
69204;DHT22;56317;27.658;85.326;2023-04-03T09:29:07;41.30;39.90
69204;DHT22;56317;27.658;85.326;2023-04-03T09:31:40;44.50;39.00
69204;DHT22;56317;27.658;85.326;2023-04-03T09:34:45;44.10;36.50
69204;DHT22;56317;27.658;85.326;2023-04-03T09:37:35;39.80;38.20
69204;DHT22;56317;27.658;85.326;2023-04-03T09:40:04;37.00;41.30
69204;DHT22;56317;27.658;85.326;2023-04-03T09:42:32;35.00;41.30
69204;DHT22;56317;27.658;85.326;2023-04-03T09:45:05;33.10;42.60
69204;DHT22;56317;27.658;85.326;2023-04-03T09:47:35;33.50;45.60
69204;DHT22;56317;27.658;85.326;2023-04-03T09:50:20;36.40;43.90
69204;DHT22;56317;27.658;85.326;2023-04-03T09:52:51;39.00;41.30
69204;DHT22;56317;27.658;85.326;2023-04-03T09:55:26;41.10;40.40
69204;DHT22;56317;27.658;85.326;2023-04-03T09:58:01;41.20;39.90
69204;DHT22;56317;27.658;85.326;2023-04-03T10:00:35;39.30;39.90
69204;DHT22;56317;27.658;85.326;2023-04-03T10:03:04;39.70;41.20
69204;DHT22;56317;27.658;85.326;2023-04-03T10:05:40;37.90;40.00
69204;DHT22;56317;27.658;85.326;2023-04-03T10:10:47;35.00;42.90
69204;DHT22;56317;27.658;85.326;2023-04-03T10:13:17;33.10;44.60
69204;DHT22;56317;27.658;85.326;2023-04-03T10:16:06;33.60;47.00
69204;DHT22;56317;27.658;85.326;2023-04-03T10:27:42;42.90;38.50
69204;DHT22;56317;27.658;85.326;2023-04-03T10:30:21;43.20;37.30
69204;DHT22;56317;27.658;85.326;2023-04-03T10:44:12;41.60;37.50
69204;DHT22;56317;27.658;85.326;2023-04-03T10:46:50;40.80;37.40
69204;DHT22;56317;27.658;85.326;2023-04-03T10:55:02;38.90;39.40
69204;DHT22;56317;27.658;85.326;2023-04-03T10:57:34;38.60;39.10
69204;DHT22;56317;27.658;85.326;2023-04-03T11:00:06;38.50;39.60
69204;DHT22;56317;27.658;85.326;2023-04-03T11:02:55;38.60;39.50
69204;DHT22;56317;27.658;85.326;2023-04-03T11:11:09;37.00;40.60
69204;DHT22;56317;27.658;85.326;2023-04-03T11:16:30;36.50;41.80
69204;DHT22;56317;27.658;85.326;2023-04-03T11:19:05;36.90;41.80
69204;DHT22;56317;27.658;85.326;2023-04-03T11:24:32;36.40;41.70
69204;DHT22;56317;27.658;85.326;2023-04-03T11:27:02;36.00;42.30
69204;DHT22;56317;27.658;85.326;2023-04-03T11:29:32;35.30;42.80
69204;DHT22;56317;27.658;85.326;2023-04-03T11:35:22;32.80;44.80
69204;DHT22;56317;27.658;85.326;2023-04-03T11:37:52;29.30;49.00
69204;DHT22;56317;27.658;85.326;2023-04-03T11:40:26;27.00;51.90
69204;DHT22;56317;27.658;85.326;2023-04-03T11:43:16;25.40;54.60
69204;DHT22;56317;27.658;85.326;2023-04-03T11:45:53;24.00;58.90
69204;DHT22;56317;27.658;85.326;2023-04-03T11:50:55;22.20;61.80
69204;DHT22;56317;27.658;85.326;2023-04-03T11:53:34;21.80;64.90
69204;DHT22;56317;27.658;85.326;2023-04-03T11:56:26;21.40;65.70
69204;DHT22;56317;27.658;85.326;2023-04-03T12:01:57;20.90;70.00
69204;DHT22;56317;27.658;85.326;2023-04-03T12:04:26;20.60;70.60
69204;DHT22;56317;27.658;85.326;2023-04-03T12:07:00;20.40;70.90
69204;DHT22;56317;27.658;85.326;2023-04-03T12:09:54;20.20;72.20
69204;DHT22;56317;27.658;85.326;2023-04-03T12:12:30;20.00;72.90
69204;DHT22;56317;27.658;85.326;2023-04-03T12:17:47;19.60;74.50
69204;DHT22;56317;27.658;85.326;2023-04-03T12:28:37;19.00;78.80
69204;DHT22;56317;27.658;85.326;2023-04-03T12:31:09;18.90;82.10
69204;DHT22;56317;27.658;85.326;2023-04-03T12:34:12;18.80;82.20
69204;DHT22;56317;27.658;85.326;2023-04-03T12:37:01;18.60;81.80
69204;DHT22;56317;27.658;85.326;2023-04-03T12:39:52;18.50;84.80
69204;DHT22;56317;27.658;85.326;2023-04-03T12:45:09;18.20;90.30
69204;DHT22;56317;27.658;85.326;2023-04-03T12:47:43;18.20;91.70
69204;DHT22;56317;27.658;85.326;2023-04-03T12:50:26;18.10;92.40
69204;DHT22;56317;27.658;85.326;2023-04-03T12:55:56;17.90;97.50
69204;DHT22;56317;27.658;85.326;2023-04-03T12:58:26;17.80;99.90
69204;DHT22;56317;27.658;85.326;2023-04-03T13:01:25;17.70;99.90
69204;DHT22;56317;27.658;85.326;2023-04-03T13:03:57;17.60;99.90
69204;DHT22;56317;27.658;85.326;2023-04-03T13:06:32;17.60;99.90
69204;DHT22;56317;27.658;85.326;2023-04-03T13:09:01;17.50;99.90
69204;DHT22;56317;27.658;85.326;2023-04-03T13:11:36;17.50;99.90
69204;DHT22;56317;27.658;85.326;2023-04-03T13:14:15;17.40;99.90
69204;DHT22;56317;27.658;85.326;2023-04-03T13:19:52;17.30;99.90
69204;DHT22;56317;27.658;85.326;2023-04-03T13:22:27;17.30;99.90
69204;DHT22;56317;27.658;85.326;2023-04-03T13:24:56;17.20;99.90
69204;DHT22;56317;27.658;85.326;2023-04-03T13:27:25;17.10;99.90
69204;DHT22;56317;27.658;85.326;2023-04-03T13:29:54;17.10;99.90
69204;DHT22;56317;27.658;85.326;2023-04-03T13:32:25;17.10;99.90
69204;DHT22;56317;27.658;85.326;2023-04-03T13:34:53;17.10;99.90
69204;DHT22;56317;27.658;85.326;2023-04-03T13:37:25;17.00;99.90
69204;DHT22;56317;27.658;85.326;2023-04-03T13:42:31;16.90;99.90
69204;DHT22;56317;27.658;85.326;2023-04-03T13:45:20;16.90;99.90
69204;DHT22;56317;27.658;85.326;2023-04-03T13:47:52;16.80;99.90
69204;DHT22;56317;27.658;85.326;2023-04-03T13:50:26;16.70;99.90
69204;DHT22;56317;27.658;85.326;2023-04-03T13:53:12;16.70;99.90
69204;DHT22;56317;27.658;85.326;2023-04-03T13:56:05;16.60;99.90
69204;DHT22;56317;27.658;85.326;2023-04-03T13:58:34;16.60;99.90
69204;DHT22;56317;27.658;85.326;2023-04-03T14:01:18;16.60;99.90
69204;DHT22;56317;27.658;85.326;2023-04-03T14:04:17;16.60;99.90
69204;DHT22;56317;27.658;85.326;2023-04-03T14:06:45;16.50;99.90
69204;DHT22;56317;27.658;85.326;2023-04-03T14:09:13;16.50;99.90
69204;DHT22;56317;27.658;85.326;2023-04-03T14:11:42;16.40;99.90
69204;DHT22;56317;27.658;85.326;2023-04-03T14:14:16;16.40;99.90
69204;DHT22;56317;27.658;85.326;2023-04-03T14:16:47;16.40;99.90
69204;DHT22;56317;27.658;85.326;2023-04-03T14:19:28;16.40;99.90
69204;DHT22;56317;27.658;85.326;2023-04-03T14:21:58;16.30;99.90
69204;DHT22;56317;27.658;85.326;2023-04-03T14:24:25;16.20;99.90
69204;DHT22;56317;27.658;85.326;2023-04-03T14:26:55;16.00;99.90
69204;DHT22;56317;27.658;85.326;2023-04-03T14:29:23;15.80;99.90
69204;DHT22;56317;27.658;85.326;2023-04-03T14:31:50;15.80;99.90
69204;DHT22;56317;27.658;85.326;2023-04-03T14:34:20;15.70;99.90
69204;DHT22;56317;27.658;85.326;2023-04-03T14:36:48;15.60;99.90
69204;DHT22;56317;27.658;85.326;2023-04-03T14:39:17;15.60;99.90
69204;DHT22;56317;27.658;85.326;2023-04-03T14:41:45;15.50;99.90
69204;DHT22;56317;27.658;85.326;2023-04-03T14:44:16;15.50;99.90
69204;DHT22;56317;27.658;85.326;2023-04-03T14:46:44;15.50;99.90
69204;DHT22;56317;27.658;85.326;2023-04-03T14:49:18;15.40;99.90
69204;DHT22;56317;27.658;85.326;2023-04-03T14:51:47;15.40;99.90
69204;DHT22;56317;27.658;85.326;2023-04-03T14:54:19;15.30;99.90
69204;DHT22;56317;27.658;85.326;2023-04-03T14:56:52;15.30;99.90
69204;DHT22;56317;27.658;85.326;2023-04-03T14:59:19;15.20;99.90
69204;DHT22;56317;27.658;85.326;2023-04-03T15:01:48;15.30;99.90
69204;DHT22;56317;27.658;85.326;2023-04-03T15:04:17;15.30;99.90
69204;DHT22;56317;27.658;85.326;2023-04-03T15:06:46;15.30;99.90
69204;DHT22;56317;27.658;85.326;2023-04-03T15:09:27;15.20;99.90
69204;DHT22;56317;27.658;85.326;2023-04-03T15:11:55;15.20;99.90
69204;DHT22;56317;27.658;85.326;2023-04-03T15:14:25;15.20;99.90
69204;DHT22;56317;27.658;85.326;2023-04-03T15:16:52;15.20;99.90
69204;DHT22;56317;27.658;85.326;2023-04-03T15:19:20;15.20;99.90
69204;DHT22;56317;27.658;85.326;2023-04-03T15:21:47;15.20;99.90
69204;DHT22;56317;27.658;85.326;2023-04-03T15:24:14;15.10;99.90
69204;DHT22;56317;27.658;85.326;2023-04-03T15:26:41;15.10;99.90
69204;DHT22;56317;27.658;85.326;2023-04-03T15:29:12;15.10;99.90
69204;DHT22;56317;27.658;85.326;2023-04-03T15:31:39;15.10;99.90
69204;DHT22;56317;27.658;85.326;2023-04-03T15:34:06;15.00;99.90
69204;DHT22;56317;27.658;85.326;2023-04-03T15:36:33;15.00;99.90
69204;DHT22;56317;27.658;85.326;2023-04-03T15:39:00;14.80;99.90
69204;DHT22;56317;27.658;85.326;2023-04-03T15:41:28;14.70;99.90
69204;DHT22;56317;27.658;85.326;2023-04-03T15:43:55;14.70;99.90
69204;DHT22;56317;27.658;85.326;2023-04-03T15:46:22;14.60;99.90
69204;DHT22;56317;27.658;85.326;2023-04-03T15:48:49;14.50;99.90
69204;DHT22;56317;27.658;85.326;2023-04-03T15:51:17;14.40;99.90
69204;DHT22;56317;27.658;85.326;2023-04-03T15:53:44;14.30;99.90
69204;DHT22;56317;27.658;85.326;2023-04-03T15:56:11;14.30;99.90
69204;DHT22;56317;27.658;85.326;2023-04-03T15:58:38;14.30;99.90
69204;DHT22;56317;27.658;85.326;2023-04-03T16:01:08;14.30;99.90
69204;DHT22;56317;27.658;85.326;2023-04-03T16:03:36;14.30;99.90
69204;DHT22;56317;27.658;85.326;2023-04-03T16:06:05;14.30;99.90
69204;DHT22;56317;27.658;85.326;2023-04-03T16:08:32;14.20;99.90
69204;DHT22;56317;27.658;85.326;2023-04-03T16:10:59;14.20;99.90
69204;DHT22;56317;27.658;85.326;2023-04-03T16:13:27;14.20;99.90
69204;DHT22;56317;27.658;85.326;2023-04-03T16:15:55;14.20;99.90
69204;DHT22;56317;27.658;85.326;2023-04-03T16:18:22;14.20;99.90
69204;DHT22;56317;27.658;85.326;2023-04-03T16:20:50;14.20;99.90
69204;DHT22;56317;27.658;85.326;2023-04-03T16:23:17;14.10;99.90
69204;DHT22;56317;27.658;85.326;2023-04-03T16:25:45;14.10;99.90
69204;DHT22;56317;27.658;85.326;2023-04-03T16:28:14;14.00;99.90
69204;DHT22;56317;27.658;85.326;2023-04-03T16:30:41;14.00;99.90
69204;DHT22;56317;27.658;85.326;2023-04-03T16:33:10;13.90;99.90
69204;DHT22;56317;27.658;85.326;2023-04-03T16:35:37;13.90;99.90
69204;DHT22;56317;27.658;85.326;2023-04-03T16:38:05;13.90;99.90
69204;DHT22;56317;27.658;85.326;2023-04-03T16:40:32;13.90;99.90
69204;DHT22;56317;27.658;85.326;2023-04-03T16:43:01;13.80;99.90
69204;DHT22;56317;27.658;85.326;2023-04-03T16:45:28;13.70;99.90
69204;DHT22;56317;27.658;85.326;2023-04-03T16:47:56;13.70;99.90
69204;DHT22;56317;27.658;85.326;2023-04-03T16:50:23;13.60;99.90
69204;DHT22;56317;27.658;85.326;2023-04-03T16:52:51;13.50;99.90
69204;DHT22;56317;27.658;85.326;2023-04-03T16:55:18;13.50;99.90
69204;DHT22;56317;27.658;85.326;2023-04-03T16:57:47;13.40;99.90
69204;DHT22;56317;27.658;85.326;2023-04-03T17:00:15;13.40;99.90
69204;DHT22;56317;27.658;85.326;2023-04-03T17:02:42;13.40;99.90
69204;DHT22;56317;27.658;85.326;2023-04-03T17:05:09;13.40;99.90
69204;DHT22;56317;27.658;85.326;2023-04-03T17:07:39;13.30;99.90
69204;DHT22;56317;27.658;85.326;2023-04-03T17:10:07;13.40;99.90
69204;DHT22;56317;27.658;85.326;2023-04-03T17:12:35;13.30;99.90
69204;DHT22;56317;27.658;85.326;2023-04-03T17:15:02;13.30;99.90
69204;DHT22;56317;27.658;85.326;2023-04-03T17:17:30;13.30;99.90
69204;DHT22;56317;27.658;85.326;2023-04-03T17:19:57;13.20;99.90
69204;DHT22;56317;27.658;85.326;2023-04-03T17:22:25;13.20;99.90
69204;DHT22;56317;27.658;85.326;2023-04-03T17:24:52;13.10;99.90
69204;DHT22;56317;27.658;85.326;2023-04-03T17:27:19;13.10;99.90
69204;DHT22;56317;27.658;85.326;2023-04-03T17:29:47;13.10;99.90
69204;DHT22;56317;27.658;85.326;2023-04-03T17:32:14;13.10;99.90
69204;DHT22;56317;27.658;85.326;2023-04-03T17:34:41;13.00;99.90
69204;DHT22;56317;27.658;85.326;2023-04-03T17:37:09;13.00;99.90
69204;DHT22;56317;27.658;85.326;2023-04-03T17:39:36;13.00;99.90
69204;DHT22;56317;27.658;85.326;2023-04-03T17:42:04;13.00;99.90
69204;DHT22;56317;27.658;85.326;2023-04-03T17:44:31;13.00;99.90
69204;DHT22;56317;27.658;85.326;2023-04-03T17:46:58;13.00;99.90
69204;DHT22;56317;27.658;85.326;2023-04-03T17:49:26;13.10;99.90
69204;DHT22;56317;27.658;85.326;2023-04-03T17:51:53;13.10;99.90
69204;DHT22;56317;27.658;85.326;2023-04-03T17:54:21;13.10;99.90
69204;DHT22;56317;27.658;85.326;2023-04-03T17:56:48;13.10;99.90
69204;DHT22;56317;27.658;85.326;2023-04-03T17:59:16;13.10;99.90
69204;DHT22;56317;27.658;85.326;2023-04-03T18:01:45;13.00;99.90
69204;DHT22;56317;27.658;85.326;2023-04-03T18:04:14;12.90;99.90
69204;DHT22;56317;27.658;85.326;2023-04-03T18:06:47;12.90;99.90
69204;DHT22;56317;27.658;85.326;2023-04-03T18:09:20;12.80;99.90
69204;DHT22;56317;27.658;85.326;2023-04-03T18:11:49;12.70;99.90
69204;DHT22;56317;27.658;85.326;2023-04-03T18:14:19;12.70;99.90
69204;DHT22;56317;27.658;85.326;2023-04-03T18:16:47;12.60;99.90
69204;DHT22;56317;27.658;85.326;2023-04-03T18:19:14;12.60;99.90
69204;DHT22;56317;27.658;85.326;2023-04-03T18:21:42;12.50;99.90
69204;DHT22;56317;27.658;85.326;2023-04-03T18:24:13;12.50;99.90
69204;DHT22;56317;27.658;85.326;2023-04-03T18:26:42;12.40;99.90
69204;DHT22;56317;27.658;85.326;2023-04-03T18:29:12;12.40;99.90
69204;DHT22;56317;27.658;85.326;2023-04-03T18:31:45;12.40;99.90
69204;DHT22;56317;27.658;85.326;2023-04-03T18:34:13;12.40;99.90
69204;DHT22;56317;27.658;85.326;2023-04-03T18:36:41;12.40;99.90
69204;DHT22;56317;27.658;85.326;2023-04-03T18:39:08;12.40;99.90
69204;DHT22;56317;27.658;85.326;2023-04-03T18:41:36;12.40;99.90
69204;DHT22;56317;27.658;85.326;2023-04-03T18:44:06;12.30;99.90
69204;DHT22;56317;27.658;85.326;2023-04-03T18:46:34;12.30;99.90
69204;DHT22;56317;27.658;85.326;2023-04-03T18:49:02;12.30;99.90
69204;DHT22;56317;27.658;85.326;2023-04-03T18:51:29;12.30;99.90
69204;DHT22;56317;27.658;85.326;2023-04-03T18:53:57;12.30;99.90
69204;DHT22;56317;27.658;85.326;2023-04-03T18:56:24;12.30;99.90
69204;DHT22;56317;27.658;85.326;2023-04-03T18:58:52;12.30;99.90
69204;DHT22;56317;27.658;85.326;2023-04-03T19:01:19;12.30;99.90
69204;DHT22;56317;27.658;85.326;2023-04-03T19:03:46;12.20;99.90
69204;DHT22;56317;27.658;85.326;2023-04-03T19:06:14;12.20;99.90
69204;DHT22;56317;27.658;85.326;2023-04-03T19:08:41;12.20;99.90
69204;DHT22;56317;27.658;85.326;2023-04-03T19:11:08;12.20;99.90
69204;DHT22;56317;27.658;85.326;2023-04-03T19:13:36;12.20;99.90
69204;DHT22;56317;27.658;85.326;2023-04-03T19:16:04;12.20;99.90
69204;DHT22;56317;27.658;85.326;2023-04-03T19:18:32;12.20;99.90
69204;DHT22;56317;27.658;85.326;2023-04-03T19:20:59;12.20;99.90
69204;DHT22;56317;27.658;85.326;2023-04-03T19:23:26;12.20;99.90
69204;DHT22;56317;27.658;85.326;2023-04-03T19:25:58;12.20;99.90
69204;DHT22;56317;27.658;85.326;2023-04-03T19:28:30;12.20;99.90
69204;DHT22;56317;27.658;85.326;2023-04-03T19:30:57;12.20;99.90
69204;DHT22;56317;27.658;85.326;2023-04-03T19:33:26;12.10;99.90
69204;DHT22;56317;27.658;85.326;2023-04-03T19:35:54;12.10;99.90
69204;DHT22;56317;27.658;85.326;2023-04-03T19:38:21;12.10;99.90
69204;DHT22;56317;27.658;85.326;2023-04-03T19:40:49;12.10;99.90
69204;DHT22;56317;27.658;85.326;2023-04-03T19:43:16;12.00;99.90
69204;DHT22;56317;27.658;85.326;2023-04-03T19:45:44;12.00;99.90
69204;DHT22;56317;27.658;85.326;2023-04-03T19:48:12;11.90;99.90
69204;DHT22;56317;27.658;85.326;2023-04-03T19:50:39;12.00;99.90
69204;DHT22;56317;27.658;85.326;2023-04-03T19:53:07;11.90;99.90
69204;DHT22;56317;27.658;85.326;2023-04-03T19:55:36;11.90;99.90
69204;DHT22;56317;27.658;85.326;2023-04-03T19:58:03;11.90;99.90
69204;DHT22;56317;27.658;85.326;2023-04-03T20:00:31;11.90;99.90